sensor_id;sensor_type;location;lat;lon;timestamp;P1;durP1;ratioP1;P2;durP2;ratioP2
50681;SDS011;36779;52.168;20.878;2023-09-19T00:01:03;13.50;;;7.30;;
50681;SDS011;36779;52.168;20.878;2023-09-19T00:03:40;14.60;;;6.80;;
50681;SDS011;36779;52.168;20.878;2023-09-19T00:06:16;8.50;;;6.10;;
50681;SDS011;36779;52.168;20.878;2023-09-19T00:08:49;14.60;;;7.50;;
50681;SDS011;36779;52.168;20.878;2023-09-19T00:11:22;12.80;;;6.80;;
50681;SDS011;36779;52.168;20.878;2023-09-19T00:13:55;12.40;;;7.00;;
50681;SDS011;36779;52.168;20.878;2023-09-19T00:16:29;13.10;;;8.10;;
50681;SDS011;36779;52.168;20.878;2023-09-19T00:19:02;13.20;;;7.70;;
50681;SDS011;36779;52.168;20.878;2023-09-19T00:21:38;17.70;;;8.30;;
50681;SDS011;36779;52.168;20.878;2023-09-19T00:24:11;15.20;;;7.90;;
50681;SDS011;36779;52.168;20.878;2023-09-19T00:26:43;15.00;;;8.20;;
50681;SDS011;36779;52.168;20.878;2023-09-19T00:29:17;11.40;;;7.50;;
50681;SDS011;36779;52.168;20.878;2023-09-19T00:31:50;16.30;;;7.70;;
50681;SDS011;36779;52.168;20.878;2023-09-19T00:34:23;12.20;;;6.60;;
50681;SDS011;36779;52.168;20.878;2023-09-19T00:36:55;13.10;;;7.10;;
50681;SDS011;36779;52.168;20.878;2023-09-19T00:39:28;14.20;;;6.90;;
50681;SDS011;36779;52.168;20.878;2023-09-19T00:42:01;13.10;;;8.10;;
50681;SDS011;36779;52.168;20.878;2023-09-19T00:44:34;13.20;;;8.00;;
50681;SDS011;36779;52.168;20.878;2023-09-19T00:47:07;12.50;;;7.70;;
50681;SDS011;36779;52.168;20.878;2023-09-19T00:49:46;10.80;;;6.90;;
50681;SDS011;36779;52.168;20.878;2023-09-19T00:52:22;12.60;;;7.20;;
50681;SDS011;36779;52.168;20.878;2023-09-19T00:54:54;20.10;;;8.20;;
50681;SDS011;36779;52.168;20.878;2023-09-19T00:57:29;17.70;;;9.60;;
50681;SDS011;36779;52.168;20.878;2023-09-19T01:00:03;14.90;;;7.90;;
50681;SDS011;36779;52.168;20.878;2023-09-19T01:02:37;12.90;;;8.10;;
50681;SDS011;36779;52.168;20.878;2023-09-19T01:05:10;15.00;;;7.50;;
50681;SDS011;36779;52.168;20.878;2023-09-19T01:07:43;13.60;;;7.90;;
50681;SDS011;36779;52.168;20.878;2023-09-19T01:10:18;12.20;;;7.60;;
50681;SDS011;36779;52.168;20.878;2023-09-19T01:12:54;12.20;;;7.00;;
50681;SDS011;36779;52.168;20.878;2023-09-19T01:15:38;14.20;;;7.60;;
50681;SDS011;36779;52.168;20.878;2023-09-19T01:18:33;13.40;;;7.70;;
50681;SDS011;36779;52.168;20.878;2023-09-19T01:21:15;13.60;;;7.50;;
50681;SDS011;36779;52.168;20.878;2023-09-19T01:24:04;13.70;;;7.90;;
50681;SDS011;36779;52.168;20.878;2023-09-19T01:27:06;12.80;;;7.30;;
50681;SDS011;36779;52.168;20.878;2023-09-19T01:30:03;13.10;;;7.60;;
50681;SDS011;36779;52.168;20.878;2023-09-19T01:32:41;14.20;;;7.40;;
50681;SDS011;36779;52.168;20.878;2023-09-19T01:35:15;14.80;;;7.60;;
50681;SDS011;36779;52.168;20.878;2023-09-19T01:37:49;13.40;;;7.60;;
50681;SDS011;36779;52.168;20.878;2023-09-19T01:40:23;14.80;;;7.60;;
50681;SDS011;36779;52.168;20.878;2023-09-19T01:42:57;13.60;;;7.70;;
50681;SDS011;36779;52.168;20.878;2023-09-19T01:45:48;13.60;;;7.50;;
50681;SDS011;36779;52.168;20.878;2023-09-19T01:48:30;15.20;;;7.70;;
50681;SDS011;36779;52.168;20.878;2023-09-19T01:51:10;12.40;;;7.30;;
50681;SDS011;36779;52.168;20.878;2023-09-19T01:53:49;11.40;;;7.20;;
50681;SDS011;36779;52.168;20.878;2023-09-19T01:56:29;12.30;;;7.70;;
50681;SDS011;36779;52.168;20.878;2023-09-19T01:59:08;16.00;;;7.90;;
50681;SDS011;36779;52.168;20.878;2023-09-19T02:01:44;18.40;;;7.30;;
50681;SDS011;36779;52.168;20.878;2023-09-19T02:04:18;15.80;;;8.60;;
50681;SDS011;36779;52.168;20.878;2023-09-19T02:06:51;11.00;;;7.70;;
50681;SDS011;36779;52.168;20.878;2023-09-19T02:09:27;13.30;;;7.50;;
50681;SDS011;36779;52.168;20.878;2023-09-19T02:11:59;17.40;;;8.10;;
50681;SDS011;36779;52.168;20.878;2023-09-19T02:14:34;17.60;;;7.60;;
50681;SDS011;36779;52.168;20.878;2023-09-19T02:17:08;15.90;;;8.10;;
50681;SDS011;36779;52.168;20.878;2023-09-19T02:19:41;14.00;;;7.90;;
50681;SDS011;36779;52.168;20.878;2023-09-19T02:22:14;13.70;;;7.50;;
50681;SDS011;36779;52.168;20.878;2023-09-19T02:24:46;14.30;;;8.30;;
50681;SDS011;36779;52.168;20.878;2023-09-19T02:27:20;12.70;;;7.80;;
50681;SDS011;36779;52.168;20.878;2023-09-19T02:29:53;15.50;;;8.10;;
50681;SDS011;36779;52.168;20.878;2023-09-19T02:32:26;11.10;;;7.10;;
50681;SDS011;36779;52.168;20.878;2023-09-19T02:34:59;15.10;;;7.60;;
50681;SDS011;36779;52.168;20.878;2023-09-19T02:37:33;15.20;;;8.00;;
50681;SDS011;36779;52.168;20.878;2023-09-19T02:40:07;12.20;;;7.40;;
50681;SDS011;36779;52.168;20.878;2023-09-19T02:42:49;14.00;;;7.90;;
50681;SDS011;36779;52.168;20.878;2023-09-19T02:45:25;15.60;;;8.30;;
50681;SDS011;36779;52.168;20.878;2023-09-19T02:47:59;14.50;;;7.80;;
50681;SDS011;36779;52.168;20.878;2023-09-19T02:50:34;10.90;;;7.20;;
50681;SDS011;36779;52.168;20.878;2023-09-19T02:53:07;14.80;;;8.10;;
50681;SDS011;36779;52.168;20.878;2023-09-19T02:55:42;18.00;;;8.50;;
50681;SDS011;36779;52.168;20.878;2023-09-19T02:58:15;18.60;;;8.20;;
50681;SDS011;36779;52.168;20.878;2023-09-19T03:00:48;11.10;;;7.60;;
50681;SDS011;36779;52.168;20.878;2023-09-19T03:03:21;10.70;;;7.10;;
50681;SDS011;36779;52.168;20.878;2023-09-19T03:05:53;17.20;;;8.50;;
50681;SDS011;36779;52.168;20.878;2023-09-19T03:08:28;13.60;;;8.10;;
50681;SDS011;36779;52.168;20.878;2023-09-19T03:11:01;16.20;;;8.50;;
50681;SDS011;36779;52.168;20.878;2023-09-19T03:13:35;13.10;;;8.20;;
50681;SDS011;36779;52.168;20.878;2023-09-19T03:16:08;12.30;;;8.00;;
50681;SDS011;36779;52.168;20.878;2023-09-19T03:18:41;11.40;;;7.70;;
50681;SDS011;36779;52.168;20.878;2023-09-19T03:21:15;14.50;;;8.20;;
50681;SDS011;36779;52.168;20.878;2023-09-19T03:23:48;13.70;;;8.10;;
50681;SDS011;36779;52.168;20.878;2023-09-19T03:26:21;14.30;;;8.20;;
50681;SDS011;36779;52.168;20.878;2023-09-19T03:28:55;15.50;;;8.80;;
50681;SDS011;36779;52.168;20.878;2023-09-19T03:31:28;17.40;;;7.70;;
50681;SDS011;36779;52.168;20.878;2023-09-19T03:34:00;14.90;;;7.40;;
50681;SDS011;36779;52.168;20.878;2023-09-19T03:36:33;13.40;;;8.00;;
50681;SDS011;36779;52.168;20.878;2023-09-19T03:39:06;15.80;;;8.30;;
50681;SDS011;36779;52.168;20.878;2023-09-19T03:41:41;16.00;;;7.70;;
50681;SDS011;36779;52.168;20.878;2023-09-19T03:44:14;15.00;;;8.20;;
50681;SDS011;36779;52.168;20.878;2023-09-19T03:46:47;15.80;;;8.00;;
50681;SDS011;36779;52.168;20.878;2023-09-19T03:49:22;13.50;;;7.70;;
50681;SDS011;36779;52.168;20.878;2023-09-19T03:51:55;14.70;;;8.20;;
50681;SDS011;36779;52.168;20.878;2023-09-19T03:54:28;15.00;;;8.20;;
50681;SDS011;36779;52.168;20.878;2023-09-19T03:57:04;17.20;;;8.30;;
50681;SDS011;36779;52.168;20.878;2023-09-19T03:59:36;16.80;;;7.60;;
50681;SDS011;36779;52.168;20.878;2023-09-19T04:02:12;13.00;;;7.20;;
50681;SDS011;36779;52.168;20.878;2023-09-19T04:04:52;17.10;;;8.20;;
50681;SDS011;36779;52.168;20.878;2023-09-19T04:07:24;14.80;;;8.80;;
50681;SDS011;36779;52.168;20.878;2023-09-19T04:09:58;15.00;;;8.50;;
50681;SDS011;36779;52.168;20.878;2023-09-19T04:12:33;13.30;;;8.20;;
50681;SDS011;36779;52.168;20.878;2023-09-19T04:15:06;13.50;;;7.40;;
50681;SDS011;36779;52.168;20.878;2023-09-19T04:17:42;15.00;;;8.20;;
50681;SDS011;36779;52.168;20.878;2023-09-19T04:20:16;13.20;;;7.80;;
50681;SDS011;36779;52.168;20.878;2023-09-19T04:22:49;15.60;;;7.50;;
50681;SDS011;36779;52.168;20.878;2023-09-19T04:25:22;16.70;;;8.20;;
50681;SDS011;36779;52.168;20.878;2023-09-19T04:27:57;14.10;;;7.40;;
50681;SDS011;36779;52.168;20.878;2023-09-19T04:30:30;14.60;;;7.40;;
50681;SDS011;36779;52.168;20.878;2023-09-19T04:33:04;12.10;;;7.90;;
50681;SDS011;36779;52.168;20.878;2023-09-19T04:35:37;14.50;;;8.00;;
50681;SDS011;36779;52.168;20.878;2023-09-19T04:38:11;13.30;;;7.40;;
50681;SDS011;36779;52.168;20.878;2023-09-19T04:40:44;16.90;;;7.90;;
50681;SDS011;36779;52.168;20.878;2023-09-19T04:43:16;11.70;;;7.20;;
50681;SDS011;36779;52.168;20.878;2023-09-19T04:45:51;12.50;;;8.20;;
50681;SDS011;36779;52.168;20.878;2023-09-19T04:48:25;13.60;;;9.10;;
50681;SDS011;36779;52.168;20.878;2023-09-19T04:50:59;16.80;;;9.60;;
50681;SDS011;36779;52.168;20.878;2023-09-19T04:53:31;20.30;;;12.40;;
50681;SDS011;36779;52.168;20.878;2023-09-19T04:56:04;24.80;;;15.10;;
50681;SDS011;36779;52.168;20.878;2023-09-19T04:58:37;20.90;;;12.30;;
50681;SDS011;36779;52.168;20.878;2023-09-19T05:01:09;16.30;;;9.90;;
50681;SDS011;36779;52.168;20.878;2023-09-19T05:03:44;14.20;;;8.30;;
50681;SDS011;36779;52.168;20.878;2023-09-19T05:06:22;13.10;;;7.50;;
50681;SDS011;36779;52.168;20.878;2023-09-19T05:08:56;18.40;;;8.30;;
50681;SDS011;36779;52.168;20.878;2023-09-19T05:11:30;13.80;;;7.40;;
50681;SDS011;36779;52.168;20.878;2023-09-19T05:14:02;12.40;;;7.10;;
50681;SDS011;36779;52.168;20.878;2023-09-19T05:16:35;15.90;;;8.20;;
50681;SDS011;36779;52.168;20.878;2023-09-19T05:19:09;16.30;;;7.90;;
50681;SDS011;36779;52.168;20.878;2023-09-19T05:21:42;16.10;;;7.80;;
50681;SDS011;36779;52.168;20.878;2023-09-19T05:24:14;12.70;;;8.50;;
50681;SDS011;36779;52.168;20.878;2023-09-19T05:26:48;12.10;;;7.80;;
50681;SDS011;36779;52.168;20.878;2023-09-19T05:29:20;14.30;;;8.30;;
50681;SDS011;36779;52.168;20.878;2023-09-19T05:31:53;14.00;;;8.00;;
50681;SDS011;36779;52.168;20.878;2023-09-19T05:34:25;19.50;;;9.00;;
50681;SDS011;36779;52.168;20.878;2023-09-19T05:36:59;15.00;;;8.20;;
50681;SDS011;36779;52.168;20.878;2023-09-19T05:39:31;14.60;;;7.70;;
50681;SDS011;36779;52.168;20.878;2023-09-19T05:42:04;14.20;;;6.60;;
50681;SDS011;36779;52.168;20.878;2023-09-19T05:44:37;14.10;;;7.40;;
50681;SDS011;36779;52.168;20.878;2023-09-19T05:47:10;16.10;;;7.60;;
50681;SDS011;36779;52.168;20.878;2023-09-19T05:49:42;10.20;;;7.10;;
50681;SDS011;36779;52.168;20.878;2023-09-19T05:52:14;15.00;;;8.50;;
50681;SDS011;36779;52.168;20.878;2023-09-19T05:54:48;14.80;;;7.90;;
50681;SDS011;36779;52.168;20.878;2023-09-19T05:57:20;16.60;;;8.80;;
50681;SDS011;36779;52.168;20.878;2023-09-19T05:59:54;15.30;;;8.70;;
50681;SDS011;36779;52.168;20.878;2023-09-19T06:02:26;16.40;;;7.80;;
50681;SDS011;36779;52.168;20.878;2023-09-19T06:04:59;16.90;;;7.80;;
50681;SDS011;36779;52.168;20.878;2023-09-19T06:07:32;12.70;;;7.80;;
50681;SDS011;36779;52.168;20.878;2023-09-19T06:10:06;13.30;;;7.30;;
50681;SDS011;36779;52.168;20.878;2023-09-19T06:12:39;14.20;;;7.40;;
50681;SDS011;36779;52.168;20.878;2023-09-19T06:15:14;17.00;;;7.70;;
50681;SDS011;36779;52.168;20.878;2023-09-19T06:17:49;16.00;;;7.70;;
50681;SDS011;36779;52.168;20.878;2023-09-19T06:20:25;15.00;;;8.70;;
50681;SDS011;36779;52.168;20.878;2023-09-19T06:22:58;12.90;;;8.10;;
50681;SDS011;36779;52.168;20.878;2023-09-19T06:25:31;13.60;;;7.80;;
50681;SDS011;36779;52.168;20.878;2023-09-19T06:28:04;12.30;;;7.30;;
50681;SDS011;36779;52.168;20.878;2023-09-19T06:30:39;16.40;;;7.90;;
50681;SDS011;36779;52.168;20.878;2023-09-19T06:33:11;15.40;;;7.60;;
50681;SDS011;36779;52.168;20.878;2023-09-19T06:35:47;12.40;;;7.10;;
50681;SDS011;36779;52.168;20.878;2023-09-19T06:38:22;13.80;;;7.70;;
50681;SDS011;36779;52.168;20.878;2023-09-19T06:40:54;14.70;;;8.80;;
50681;SDS011;36779;52.168;20.878;2023-09-19T06:43:26;14.00;;;8.70;;
50681;SDS011;36779;52.168;20.878;2023-09-19T06:46:00;12.30;;;7.80;;
50681;SDS011;36779;52.168;20.878;2023-09-19T06:48:33;15.30;;;8.70;;
50681;SDS011;36779;52.168;20.878;2023-09-19T06:51:06;17.40;;;9.20;;
50681;SDS011;36779;52.168;20.878;2023-09-19T06:53:39;18.80;;;8.80;;
50681;SDS011;36779;52.168;20.878;2023-09-19T06:56:11;13.50;;;8.20;;
50681;SDS011;36779;52.168;20.878;2023-09-19T06:58:44;15.50;;;8.50;;
50681;SDS011;36779;52.168;20.878;2023-09-19T07:01:16;14.50;;;8.40;;
50681;SDS011;36779;52.168;20.878;2023-09-19T07:03:50;12.50;;;8.30;;
50681;SDS011;36779;52.168;20.878;2023-09-19T07:06:22;13.60;;;8.90;;
50681;SDS011;36779;52.168;20.878;2023-09-19T07:08:55;17.00;;;8.90;;
50681;SDS011;36779;52.168;20.878;2023-09-19T07:11:27;12.10;;;9.00;;
50681;SDS011;36779;52.168;20.878;2023-09-19T07:14:00;14.20;;;8.30;;
50681;SDS011;36779;52.168;20.878;2023-09-19T07:16:32;14.40;;;8.60;;
50681;SDS011;36779;52.168;20.878;2023-09-19T07:19:07;12.50;;;8.30;;
50681;SDS011;36779;52.168;20.878;2023-09-19T07:21:40;12.70;;;9.40;;
50681;SDS011;36779;52.168;20.878;2023-09-19T07:24:13;14.90;;;9.50;;
50681;SDS011;36779;52.168;20.878;2023-09-19T07:26:45;13.60;;;9.00;;
50681;SDS011;36779;52.168;20.878;2023-09-19T07:29:17;13.30;;;8.20;;
50681;SDS011;36779;52.168;20.878;2023-09-19T07:31:50;15.70;;;9.50;;
50681;SDS011;36779;52.168;20.878;2023-09-19T07:34:22;12.20;;;9.20;;
50681;SDS011;36779;52.168;20.878;2023-09-19T07:36:54;17.20;;;10.30;;
50681;SDS011;36779;52.168;20.878;2023-09-19T07:39:27;16.70;;;10.70;;
50681;SDS011;36779;52.168;20.878;2023-09-19T07:41:59;16.80;;;10.10;;
50681;SDS011;36779;52.168;20.878;2023-09-19T07:44:32;15.00;;;11.00;;
50681;SDS011;36779;52.168;20.878;2023-09-19T07:47:05;20.70;;;11.10;;
50681;SDS011;36779;52.168;20.878;2023-09-19T07:49:39;15.20;;;11.70;;
50681;SDS011;36779;52.168;20.878;2023-09-19T07:52:13;20.20;;;12.70;;
50681;SDS011;36779;52.168;20.878;2023-09-19T07:54:45;16.20;;;11.00;;
50681;SDS011;36779;52.168;20.878;2023-09-19T07:57:18;17.70;;;10.90;;
50681;SDS011;36779;52.168;20.878;2023-09-19T07:59:51;16.20;;;11.50;;
50681;SDS011;36779;52.168;20.878;2023-09-19T08:02:23;13.40;;;8.80;;
50681;SDS011;36779;52.168;20.878;2023-09-19T08:04:55;14.40;;;9.70;;
50681;SDS011;36779;52.168;20.878;2023-09-19T08:07:30;17.70;;;9.80;;
50681;SDS011;36779;52.168;20.878;2023-09-19T08:10:02;13.70;;;10.10;;
50681;SDS011;36779;52.168;20.878;2023-09-19T08:12:37;15.00;;;9.40;;
50681;SDS011;36779;52.168;20.878;2023-09-19T08:15:15;15.90;;;10.70;;
50681;SDS011;36779;52.168;20.878;2023-09-19T08:17:49;15.30;;;11.20;;
50681;SDS011;36779;52.168;20.878;2023-09-19T08:20:22;11.90;;;8.90;;
50681;SDS011;36779;52.168;20.878;2023-09-19T08:22:54;17.00;;;9.60;;
50681;SDS011;36779;52.168;20.878;2023-09-19T08:25:28;15.80;;;11.20;;
50681;SDS011;36779;52.168;20.878;2023-09-19T08:28:00;14.80;;;10.60;;
50681;SDS011;36779;52.168;20.878;2023-09-19T08:30:37;19.10;;;10.40;;
50681;SDS011;36779;52.168;20.878;2023-09-19T08:33:11;15.70;;;10.80;;
50681;SDS011;36779;52.168;20.878;2023-09-19T08:35:44;14.10;;;9.20;;
50681;SDS011;36779;52.168;20.878;2023-09-19T08:38:16;14.60;;;10.00;;
50681;SDS011;36779;52.168;20.878;2023-09-19T08:40:50;12.60;;;9.90;;
50681;SDS011;36779;52.168;20.878;2023-09-19T08:43:22;14.30;;;10.00;;
50681;SDS011;36779;52.168;20.878;2023-09-19T08:46:02;15.40;;;10.20;;
50681;SDS011;36779;52.168;20.878;2023-09-19T08:48:42;15.50;;;10.30;;
50681;SDS011;36779;52.168;20.878;2023-09-19T08:51:25;13.80;;;9.00;;
50681;SDS011;36779;52.168;20.878;2023-09-19T08:54:11;13.40;;;8.60;;
50681;SDS011;36779;52.168;20.878;2023-09-19T08:56:51;14.40;;;9.80;;
50681;SDS011;36779;52.168;20.878;2023-09-19T08:59:27;17.10;;;8.70;;
50681;SDS011;36779;52.168;20.878;2023-09-19T09:02:01;15.00;;;9.70;;
50681;SDS011;36779;52.168;20.878;2023-09-19T09:04:34;26.60;;;10.00;;
50681;SDS011;36779;52.168;20.878;2023-09-19T09:07:06;12.30;;;9.00;;
50681;SDS011;36779;52.168;20.878;2023-09-19T09:09:42;12.80;;;8.50;;
50681;SDS011;36779;52.168;20.878;2023-09-19T09:12:16;26.00;;;9.40;;
50681;SDS011;36779;52.168;20.878;2023-09-19T09:14:48;13.20;;;9.50;;
50681;SDS011;36779;52.168;20.878;2023-09-19T09:17:21;16.30;;;8.30;;
50681;SDS011;36779;52.168;20.878;2023-09-19T09:19:54;21.30;;;7.90;;
50681;SDS011;36779;52.168;20.878;2023-09-19T09:22:28;17.70;;;8.00;;
50681;SDS011;36779;52.168;20.878;2023-09-19T09:25:00;19.00;;;7.70;;
50681;SDS011;36779;52.168;20.878;2023-09-19T09:27:34;12.40;;;7.20;;
50681;SDS011;36779;52.168;20.878;2023-09-19T09:30:07;15.10;;;7.00;;
50681;SDS011;36779;52.168;20.878;2023-09-19T09:32:42;15.30;;;7.50;;
50681;SDS011;36779;52.168;20.878;2023-09-19T09:35:34;16.80;;;7.40;;
50681;SDS011;36779;52.168;20.878;2023-09-19T09:38:08;14.70;;;7.40;;
50681;SDS011;36779;52.168;20.878;2023-09-19T09:40:48;14.20;;;8.60;;
50681;SDS011;36779;52.168;20.878;2023-09-19T09:43:31;12.40;;;7.70;;
50681;SDS011;36779;52.168;20.878;2023-09-19T09:46:11;13.00;;;7.60;;
50681;SDS011;36779;52.168;20.878;2023-09-19T09:49:05;13.50;;;7.80;;
50681;SDS011;36779;52.168;20.878;2023-09-19T09:52:02;18.60;;;7.60;;
50681;SDS011;36779;52.168;20.878;2023-09-19T09:54:40;16.40;;;7.20;;
50681;SDS011;36779;52.168;20.878;2023-09-19T09:57:35;11.10;;;7.30;;
50681;SDS011;36779;52.168;20.878;2023-09-19T10:00:11;11.90;;;6.40;;
50681;SDS011;36779;52.168;20.878;2023-09-19T10:02:50;9.50;;;5.70;;
50681;SDS011;36779;52.168;20.878;2023-09-19T10:05:22;10.40;;;6.10;;
50681;SDS011;36779;52.168;20.878;2023-09-19T10:07:58;16.00;;;5.50;;
50681;SDS011;36779;52.168;20.878;2023-09-19T10:10:49;10.10;;;5.00;;
50681;SDS011;36779;52.168;20.878;2023-09-19T10:13:32;6.70;;;4.80;;
50681;SDS011;36779;52.168;20.878;2023-09-19T10:16:11;9.00;;;4.80;;
50681;SDS011;36779;52.168;20.878;2023-09-19T10:18:49;7.80;;;4.80;;
50681;SDS011;36779;52.168;20.878;2023-09-19T10:21:27;6.80;;;4.10;;
50681;SDS011;36779;52.168;20.878;2023-09-19T10:24:00;6.90;;;4.10;;
50681;SDS011;36779;52.168;20.878;2023-09-19T10:26:34;7.80;;;4.70;;
50681;SDS011;36779;52.168;20.878;2023-09-19T10:29:07;7.30;;;4.70;;
50681;SDS011;36779;52.168;20.878;2023-09-19T10:31:42;9.20;;;5.20;;
50681;SDS011;36779;52.168;20.878;2023-09-19T10:34:18;8.10;;;5.40;;
50681;SDS011;36779;52.168;20.878;2023-09-19T10:36:52;11.30;;;6.10;;
50681;SDS011;36779;52.168;20.878;2023-09-19T10:39:25;12.20;;;7.30;;
50681;SDS011;36779;52.168;20.878;2023-09-19T10:42:01;8.60;;;5.60;;
50681;SDS011;36779;52.168;20.878;2023-09-19T10:44:37;8.30;;;5.60;;
50681;SDS011;36779;52.168;20.878;2023-09-19T10:47:12;8.60;;;5.70;;
50681;SDS011;36779;52.168;20.878;2023-09-19T10:49:45;8.90;;;5.40;;
50681;SDS011;36779;52.168;20.878;2023-09-19T10:52:18;7.20;;;5.20;;
50681;SDS011;36779;52.168;20.878;2023-09-19T10:54:55;9.00;;;5.30;;
50681;SDS011;36779;52.168;20.878;2023-09-19T10:57:30;9.20;;;4.50;;
50681;SDS011;36779;52.168;20.878;2023-09-19T11:00:07;8.40;;;4.90;;
50681;SDS011;36779;52.168;20.878;2023-09-19T11:06:06;6.80;;;4.60;;
50681;SDS011;36779;52.168;20.878;2023-09-19T11:08:56;7.60;;;5.00;;
50681;SDS011;36779;52.168;20.878;2023-09-19T11:11:53;8.60;;;5.60;;
50681;SDS011;36779;52.168;20.878;2023-09-19T11:14:40;10.80;;;5.30;;
50681;SDS011;36779;52.168;20.878;2023-09-19T11:20:25;5.80;;;4.00;;
50681;SDS011;36779;52.168;20.878;2023-09-19T11:23:23;7.70;;;3.80;;
50681;SDS011;36779;52.168;20.878;2023-09-19T11:26:00;11.40;;;3.50;;
50681;SDS011;36779;52.168;20.878;2023-09-19T11:28:35;7.00;;;3.70;;
50681;SDS011;36779;52.168;20.878;2023-09-19T11:34:39;9.00;;;3.80;;
50681;SDS011;36779;52.168;20.878;2023-09-19T11:40:40;7.70;;;3.30;;
50681;SDS011;36779;52.168;20.878;2023-09-19T11:43:34;5.90;;;3.40;;
50681;SDS011;36779;52.168;20.878;2023-09-19T11:46:13;6.70;;;3.80;;
50681;SDS011;36779;52.168;20.878;2023-09-19T11:48:53;7.90;;;4.30;;
50681;SDS011;36779;52.168;20.878;2023-09-19T11:51:40;6.60;;;4.20;;
50681;SDS011;36779;52.168;20.878;2023-09-19T11:54:14;5.30;;;4.40;;
50681;SDS011;36779;52.168;20.878;2023-09-19T11:56:51;7.70;;;3.80;;
50681;SDS011;36779;52.168;20.878;2023-09-19T11:59:25;6.10;;;3.90;;
50681;SDS011;36779;52.168;20.878;2023-09-19T12:02:03;8.70;;;4.00;;
50681;SDS011;36779;52.168;20.878;2023-09-19T12:04:38;6.70;;;3.60;;
50681;SDS011;36779;52.168;20.878;2023-09-19T12:07:17;6.30;;;3.40;;
50681;SDS011;36779;52.168;20.878;2023-09-19T12:10:02;6.20;;;3.60;;
50681;SDS011;36779;52.168;20.878;2023-09-19T12:12:41;5.20;;;3.40;;
50681;SDS011;36779;52.168;20.878;2023-09-19T12:15:23;9.40;;;3.40;;
50681;SDS011;36779;52.168;20.878;2023-09-19T12:18:00;10.00;;;4.30;;
50681;SDS011;36779;52.168;20.878;2023-09-19T12:20:44;6.00;;;3.80;;
50681;SDS011;36779;52.168;20.878;2023-09-19T12:23:19;5.90;;;3.80;;
50681;SDS011;36779;52.168;20.878;2023-09-19T12:25:51;9.70;;;3.70;;
50681;SDS011;36779;52.168;20.878;2023-09-19T12:28:27;8.30;;;3.30;;
50681;SDS011;36779;52.168;20.878;2023-09-19T12:31:07;8.80;;;3.60;;
50681;SDS011;36779;52.168;20.878;2023-09-19T12:33:41;5.60;;;3.60;;
50681;SDS011;36779;52.168;20.878;2023-09-19T12:36:23;8.50;;;4.10;;
50681;SDS011;36779;52.168;20.878;2023-09-19T12:39:00;9.70;;;4.20;;
50681;SDS011;36779;52.168;20.878;2023-09-19T12:41:39;6.90;;;4.30;;
50681;SDS011;36779;52.168;20.878;2023-09-19T12:44:14;6.60;;;4.50;;
50681;SDS011;36779;52.168;20.878;2023-09-19T12:46:48;9.60;;;4.10;;
50681;SDS011;36779;52.168;20.878;2023-09-19T12:49:20;7.00;;;4.00;;
50681;SDS011;36779;52.168;20.878;2023-09-19T12:51:54;5.40;;;3.30;;
50681;SDS011;36779;52.168;20.878;2023-09-19T12:54:38;7.40;;;4.10;;
50681;SDS011;36779;52.168;20.878;2023-09-19T12:57:24;5.30;;;3.60;;
50681;SDS011;36779;52.168;20.878;2023-09-19T12:59:56;9.50;;;4.10;;
50681;SDS011;36779;52.168;20.878;2023-09-19T13:02:29;7.30;;;3.60;;
50681;SDS011;36779;52.168;20.878;2023-09-19T13:05:02;9.40;;;3.80;;
50681;SDS011;36779;52.168;20.878;2023-09-19T13:07:42;9.50;;;4.10;;
50681;SDS011;36779;52.168;20.878;2023-09-19T13:10:17;5.70;;;3.30;;
50681;SDS011;36779;52.168;20.878;2023-09-19T13:12:53;6.60;;;4.20;;
50681;SDS011;36779;52.168;20.878;2023-09-19T13:15:28;6.80;;;4.00;;
50681;SDS011;36779;52.168;20.878;2023-09-19T13:18:21;8.90;;;4.20;;
50681;SDS011;36779;52.168;20.878;2023-09-19T13:21:08;6.50;;;3.80;;
50681;SDS011;36779;52.168;20.878;2023-09-19T13:23:44;7.40;;;4.10;;
50681;SDS011;36779;52.168;20.878;2023-09-19T13:26:17;8.90;;;4.60;;
50681;SDS011;36779;52.168;20.878;2023-09-19T13:28:52;9.20;;;4.40;;
50681;SDS011;36779;52.168;20.878;2023-09-19T13:31:24;6.80;;;4.20;;
50681;SDS011;36779;52.168;20.878;2023-09-19T13:33:56;7.70;;;3.90;;
50681;SDS011;36779;52.168;20.878;2023-09-19T13:36:29;8.40;;;4.70;;
50681;SDS011;36779;52.168;20.878;2023-09-19T13:39:01;7.20;;;3.70;;
50681;SDS011;36779;52.168;20.878;2023-09-19T13:41:37;8.30;;;4.00;;
50681;SDS011;36779;52.168;20.878;2023-09-19T13:44:14;7.10;;;4.50;;
50681;SDS011;36779;52.168;20.878;2023-09-19T13:46:48;12.70;;;4.80;;
50681;SDS011;36779;52.168;20.878;2023-09-19T13:49:20;7.30;;;4.40;;
50681;SDS011;36779;52.168;20.878;2023-09-19T13:51:54;9.20;;;4.80;;
50681;SDS011;36779;52.168;20.878;2023-09-19T13:54:27;10.80;;;5.40;;
50681;SDS011;36779;52.168;20.878;2023-09-19T13:57:00;10.00;;;5.50;;
50681;SDS011;36779;52.168;20.878;2023-09-19T13:59:32;8.90;;;6.00;;
50681;SDS011;36779;52.168;20.878;2023-09-19T14:02:05;7.00;;;5.80;;
50681;SDS011;36779;52.168;20.878;2023-09-19T14:04:37;9.70;;;5.90;;
50681;SDS011;36779;52.168;20.878;2023-09-19T14:07:10;12.40;;;6.90;;
50681;SDS011;36779;52.168;20.878;2023-09-19T14:09:45;13.10;;;7.70;;
50681;SDS011;36779;52.168;20.878;2023-09-19T14:12:22;10.90;;;6.80;;
50681;SDS011;36779;52.168;20.878;2023-09-19T14:14:56;11.40;;;5.90;;
50681;SDS011;36779;52.168;20.878;2023-09-19T14:17:29;7.90;;;5.40;;
50681;SDS011;36779;52.168;20.878;2023-09-19T14:20:02;7.90;;;4.70;;
50681;SDS011;36779;52.168;20.878;2023-09-19T14:22:36;6.20;;;4.90;;
50681;SDS011;36779;52.168;20.878;2023-09-19T14:25:09;5.50;;;4.50;;
50681;SDS011;36779;52.168;20.878;2023-09-19T14:27:42;8.60;;;4.40;;
50681;SDS011;36779;52.168;20.878;2023-09-19T14:30:14;5.20;;;4.00;;
50681;SDS011;36779;52.168;20.878;2023-09-19T14:32:49;4.70;;;3.90;;
50681;SDS011;36779;52.168;20.878;2023-09-19T14:35:25;6.10;;;4.00;;
50681;SDS011;36779;52.168;20.878;2023-09-19T14:37:58;6.10;;;3.60;;
50681;SDS011;36779;52.168;20.878;2023-09-19T14:40:31;6.20;;;3.70;;
50681;SDS011;36779;52.168;20.878;2023-09-19T14:43:05;6.20;;;3.50;;
50681;SDS011;36779;52.168;20.878;2023-09-19T14:45:37;6.00;;;4.40;;
50681;SDS011;36779;52.168;20.878;2023-09-19T14:48:10;6.40;;;4.30;;
50681;SDS011;36779;52.168;20.878;2023-09-19T14:50:42;7.50;;;3.90;;
50681;SDS011;36779;52.168;20.878;2023-09-19T14:53:17;5.80;;;3.70;;
50681;SDS011;36779;52.168;20.878;2023-09-19T14:55:50;8.00;;;4.10;;
50681;SDS011;36779;52.168;20.878;2023-09-19T14:58:24;8.40;;;4.10;;
50681;SDS011;36779;52.168;20.878;2023-09-19T15:01:05;6.90;;;3.60;;
50681;SDS011;36779;52.168;20.878;2023-09-19T15:03:41;5.90;;;3.60;;
50681;SDS011;36779;52.168;20.878;2023-09-19T15:06:13;5.90;;;3.80;;
50681;SDS011;36779;52.168;20.878;2023-09-19T15:08:51;9.50;;;3.80;;
50681;SDS011;36779;52.168;20.878;2023-09-19T15:11:23;4.60;;;3.80;;
50681;SDS011;36779;52.168;20.878;2023-09-19T15:13:55;4.80;;;4.10;;
50681;SDS011;36779;52.168;20.878;2023-09-19T15:16:28;7.40;;;4.10;;
50681;SDS011;36779;52.168;20.878;2023-09-19T15:19:02;7.00;;;3.80;;
50681;SDS011;36779;52.168;20.878;2023-09-19T15:21:36;9.60;;;4.40;;
50681;SDS011;36779;52.168;20.878;2023-09-19T15:24:09;5.30;;;4.00;;